Terminal Aerodrome Forecast
Issued by NWS

Home | Current Version | Previous Version | Text Only | Print | Product List | Glossary On
Versions: 1 2 3 4 5 6 7 8 9 10 11 12 13 14 15 16 17 18 19 20 21 22 23 24 25 26 27
900
FTUS43 KGLD 231720
TAFMCK
TAF
KMCK 231720Z 2318/2418 19007KT P6SM FEW250
     FM232100 34007KT P6SM FEW250
     FM240000 36012G17KT P6SM FEW060 FEW150 SCT250
     FM240200 35010KT P6SM FEW060 FEW150 SCT250
     FM241100 02010KT P6SM SCT150 BKN200
     FM241500 04013G18KT P6SM VCSH SCT060 BKN100
      TEMPO 2415/2418 -TSRA BKN060CB=

USA.gov is the U.S. government's official web portal to all federal, state and local government web resources and services.